Time;durP1;ratioP1;P1;durP2;ratioP2;P2;SDS_P1;SDS_P2;PMS_P1;PMS_P2;Temp;Humidity;BMP_temperature;BMP_pressure;BME280_temperature;BME280_humidity;BME280_pressure;Samples;Min_cycle;Max_cycle;Signal;HPM_P1;HPM_P2
2023/12/05 00:00:36;;;;;;;20.60;12.37;;;0.10;99.90;;;;;;5043510;28;20033;-77
2023/12/05 00:03:02;;;;;;;19.23;12.17;;;0.10;99.90;;;;;;5048242;28;20159;-76
2023/12/05 00:05:28;;;;;;;19.17;12.07;;;0.10;99.90;;;;;;5042307;28;20505;-76
2023/12/05 00:07:54;;;;;;;19.60;12.10;;;0.10;99.90;;;;;;5045090;28;20037;-76
2023/12/05 00:10:20;;;;;;;22.30;13.67;;;0.10;99.90;;;;;;5041759;28;20404;-76
2023/12/05 00:12:45;;;;;;;21.37;13.30;;;0.10;99.90;;;;;;5041764;28;20034;-75
2023/12/05 00:15:11;;;;;;;21.43;13.67;;;0.10;99.90;;;;;;5024040;28;20042;-76
2023/12/05 00:17:37;;;;;;;20.57;13.13;;;0.10;99.90;;;;;;5049071;28;20492;-76
2023/12/05 00:20:03;;;;;;;23.10;13.83;;;0.10;99.90;;;;;;5043649;28;20029;-75
2023/12/05 00:22:29;;;;;;;20.80;13.73;;;0.10;99.90;;;;;;5048551;28;20461;-75
2023/12/05 00:24:55;;;;;;;21.20;13.77;;;0.10;99.90;;;;;;5065517;28;20069;-76
2023/12/05 00:27:20;;;;;;;23.27;14.47;;;0.10;99.90;;;;;;5044326;28;20124;-76
2023/12/05 00:29:49;;;;;;;21.67;13.93;;;0.10;99.90;;;;;;5042745;28;20306;-76
2023/12/05 00:32:15;;;;;;;23.90;15.10;;;0.10;99.90;;;;;;5075758;28;20386;-76
2023/12/05 00:34:43;;;;;;;23.00;14.53;;;0.10;99.90;;;;;;5049035;28;20459;-76
2023/12/05 00:37:09;;;;;;;24.97;15.93;;;0.10;99.90;;;;;;5051465;28;20041;-76
2023/12/05 00:39:34;;;;;;;25.60;16.30;;;0.10;99.90;;;;;;5043189;28;20067;-76
2023/12/05 00:42:00;;;;;;;25.30;16.43;;;0.10;99.90;;;;;;5036525;28;20044;-76
2023/12/05 00:44:26;;;;;;;24.60;16.57;;;0.10;99.90;;;;;;5051694;28;20065;-76
2023/12/05 00:46:52;;;;;;;25.60;16.17;;;0.00;99.90;;;;;;5051467;28;20047;-76
2023/12/05 00:49:18;;;;;;;27.03;16.60;;;0.10;99.90;;;;;;5049928;28;20045;-77
2023/12/05 00:51:43;;;;;;;27.10;17.87;;;0.10;99.90;;;;;;5044878;28;20409;-76
2023/12/05 00:54:09;;;;;;;27.23;16.80;;;0.00;99.90;;;;;;5048644;28;20048;-75
2023/12/05 00:56:35;;;;;;;26.30;15.67;;;0.00;99.90;;;;;;5048455;28;20040;-77
2023/12/05 00:59:00;;;;;;;26.73;15.83;;;0.00;99.90;;;;;;5049438;28;20037;-76
2023/12/05 01:01:26;;;;;;;26.53;16.30;;;0.00;99.90;;;;;;5049262;28;20420;-75
2023/12/05 01:03:51;;;;;;;27.70;16.50;;;0.00;99.90;;;;;;5049306;28;20048;-76
2023/12/05 01:06:18;;;;;;;26.10;15.57;;;0.00;99.90;;;;;;5033309;28;20566;-76
2023/12/05 01:08:43;;;;;;;27.87;16.30;;;0.00;99.90;;;;;;5031819;28;20041;-76
2023/12/05 01:11:12;;;;;;;24.77;14.87;;;0.00;99.90;;;;;;5049016;28;20063;-76
2023/12/05 01:13:38;;;;;;;25.73;15.40;;;0.00;99.90;;;;;;5033497;28;20037;-76
2023/12/05 01:16:04;;;;;;;23.73;15.60;;;0.00;99.90;;;;;;5048923;28;20043;-75
2023/12/05 01:18:30;;;;;;;25.70;16.20;;;0.00;99.90;;;;;;5050473;28;20044;-76
2023/12/05 01:20:56;;;;;;;25.40;14.70;;;0.00;99.90;;;;;;5043157;28;20118;-76
2023/12/05 01:23:21;;;;;;;22.43;14.97;;;0.00;99.90;;;;;;5049833;28;20584;-76
2023/12/05 01:25:47;;;;;;;26.83;15.87;;;0.00;99.90;;;;;;5049606;28;20094;-76
2023/12/05 01:28:13;;;;;;;24.40;14.90;;;0.00;99.90;;;;;;5045055;28;20060;-75
2023/12/05 01:30:38;;;;;;;23.57;14.30;;;0.00;99.90;;;;;;5048209;28;20052;-76
2023/12/05 01:33:04;;;;;;;25.00;14.30;;;0.00;99.90;;;;;;5048455;28;20053;-76
2023/12/05 01:35:30;;;;;;;24.60;15.60;;;0.00;99.90;;;;;;5051214;28;20489;-76
2023/12/05 01:37:55;;;;;;;22.97;14.57;;;0.00;99.90;;;;;;5045472;28;20033;-76
2023/12/05 01:40:21;;;;;;;24.27;14.67;;;0.00;99.90;;;;;;5033884;28;20048;-76
2023/12/05 01:42:47;;;;;;;22.90;14.80;;;0.00;99.90;;;;;;5050701;28;20540;-76
2023/12/05 01:45:12;;;;;;;24.20;14.43;;;-0.10;99.90;;;;;;5051057;28;20164;-76
2023/12/05 01:47:40;;;;;;;23.77;14.80;;;-0.10;99.90;;;;;;5034180;28;20116;-76
2023/12/05 01:50:10;;;;;;;25.20;15.30;;;0.00;99.90;;;;;;5050063;28;20051;-76
2023/12/05 01:52:38;;;;;;;23.43;14.33;;;-0.10;99.90;;;;;;5082114;28;20466;-76
2023/12/05 01:55:04;;;;;;;24.10;15.47;;;-0.10;99.90;;;;;;5029843;28;20095;-76
2023/12/05 01:57:30;;;;;;;26.77;15.03;;;0.00;99.90;;;;;;5049122;28;20046;-75
2023/12/05 01:59:56;;;;;;;23.37;14.57;;;-0.10;99.90;;;;;;5050955;28;20047;-76
2023/12/05 02:02:22;;;;;;;25.43;15.10;;;-0.10;99.90;;;;;;5029372;28;20045;-76
2023/12/05 02:04:48;;;;;;;26.03;15.33;;;-0.10;99.90;;;;;;5037440;28;20043;-76
2023/12/05 02:07:14;;;;;;;26.40;15.93;;;-0.10;99.90;;;;;;5050019;28;20504;-75
2023/12/05 02:09:40;;;;;;;27.67;15.53;;;-0.10;99.90;;;;;;5049754;28;20083;-77
2023/12/05 02:12:06;;;;;;;24.77;15.03;;;-0.10;99.90;;;;;;5028207;28;20449;-77
2023/12/05 02:14:32;;;;;;;23.93;14.53;;;-0.10;99.90;;;;;;5029683;28;20049;-76
2023/12/05 02:17:06;;;;;;;24.80;14.87;;;-0.10;99.90;;;;;;5050716;28;20120;-76
2023/12/05 02:19:58;;;;;;;23.53;14.40;;;-0.10;99.90;;;;;;5050044;28;20041;-77
2023/12/05 02:22:42;;;;;;;25.47;15.00;;;-0.10;99.90;;;;;;5047879;28;20083;-76
2023/12/05 02:25:35;;;;;;;25.13;14.20;;;-0.10;99.90;;;;;;5042864;28;20045;-76
2023/12/05 02:28:02;;;;;;;24.40;14.67;;;-0.10;99.90;;;;;;5041722;28;20065;-75
2023/12/05 02:30:28;;;;;;;25.03;15.37;;;-0.20;99.90;;;;;;5049278;28;20045;-76
2023/12/05 02:32:53;;;;;;;25.53;14.73;;;-0.10;99.90;;;;;;5048137;28;20378;-75
2023/12/05 02:35:19;;;;;;;25.67;14.73;;;-0.20;99.90;;;;;;5049006;28;20025;-76
2023/12/05 02:38:06;;;;;;;24.93;15.23;;;-0.20;99.90;;;;;;5048818;28;20029;-77
2023/12/05 02:40:57;;;;;;;25.10;15.03;;;-0.20;99.90;;;;;;5046991;28;20048;-75
2023/12/05 02:43:48;;;;;;;24.87;14.90;;;-0.10;99.90;;;;;;5076662;28;20045;-75
2023/12/05 02:46:17;;;;;;;26.33;15.30;;;-0.20;99.90;;;;;;5044035;28;20052;-76
2023/12/05 02:48:43;;;;;;;23.80;14.93;;;-0.20;99.90;;;;;;5048991;28;20041;-76
2023/12/05 02:51:10;;;;;;;26.00;15.77;;;-0.20;99.90;;;;;;5048969;28;20083;-75
2023/12/05 02:53:36;;;;;;;25.77;15.67;;;-0.20;99.90;;;;;;5049107;28;20045;-76
2023/12/05 02:56:02;;;;;;;26.57;15.67;;;-0.20;99.90;;;;;;5048770;28;20047;-76
2023/12/05 02:58:28;;;;;;;25.30;15.67;;;-0.20;99.90;;;;;;5047520;28;20047;-75
2023/12/05 03:00:54;;;;;;;24.23;14.63;;;-0.20;99.90;;;;;;5049619;28;20045;-76
2023/12/05 03:03:19;;;;;;;28.33;16.10;;;-0.20;99.90;;;;;;5046020;28;20047;-76
2023/12/05 03:05:45;;;;;;;25.13;15.53;;;-0.20;99.90;;;;;;5050093;28;20048;-76
2023/12/05 03:08:11;;;;;;;29.43;16.63;;;-0.20;99.90;;;;;;5045473;28;20040;-75
2023/12/05 03:10:36;;;;;;;27.70;15.73;;;-0.20;99.90;;;;;;5048751;28;20097;-76
2023/12/05 03:13:02;;;;;;;26.67;15.63;;;-0.20;99.90;;;;;;5047562;28;20033;-75
2023/12/05 03:15:28;;;;;;;27.47;15.13;;;-0.20;99.90;;;;;;5048834;28;20037;-75
2023/12/05 03:17:53;;;;;;;25.93;15.87;;;-0.30;99.90;;;;;;5049569;28;20029;-75
2023/12/05 03:20:19;;;;;;;25.80;15.83;;;-0.20;99.90;;;;;;5047960;28;20401;-75
2023/12/05 03:22:45;;;;;;;27.80;16.30;;;-0.20;99.90;;;;;;5049023;28;20084;-75
2023/12/05 03:25:11;;;;;;;25.97;16.13;;;-0.30;99.90;;;;;;5076643;28;20123;-76
2023/12/05 03:27:37;;;;;;;27.83;16.67;;;-0.30;99.90;;;;;;5082103;28;20167;-75
2023/12/05 03:30:03;;;;;;;25.40;15.53;;;-0.30;99.90;;;;;;5047654;28;20416;-75
2023/12/05 03:32:29;;;;;;;24.67;15.80;;;-0.30;99.90;;;;;;5047291;28;20044;-75
2023/12/05 03:34:55;;;;;;;28.33;16.87;;;-0.30;99.90;;;;;;5049053;28;20033;-75
2023/12/05 03:37:20;;;;;;;27.73;16.40;;;-0.30;99.90;;;;;;5048911;28;20037;-75
2023/12/05 03:39:46;;;;;;;28.40;16.63;;;-0.30;99.90;;;;;;5048570;28;20032;-75
2023/12/05 03:42:12;;;;;;;28.47;16.97;;;-0.30;99.90;;;;;;5049099;28;20528;-75
2023/12/05 03:44:37;;;;;;;27.47;15.97;;;-0.30;99.90;;;;;;5046085;28;20048;-76
2023/12/05 03:47:03;;;;;;;27.07;17.20;;;-0.30;99.90;;;;;;5048723;28;20039;-75
2023/12/05 03:49:29;;;;;;;26.37;16.73;;;-0.40;99.90;;;;;;5049108;28;20037;-76
2023/12/05 03:51:54;;;;;;;26.30;15.57;;;-0.30;99.90;;;;;;5046927;28;20045;-75
2023/12/05 03:54:20;;;;;;;28.77;16.90;;;-0.30;99.90;;;;;;5041623;28;20505;-75
2023/12/05 03:56:46;;;;;;;29.07;16.07;;;-0.40;99.90;;;;;;5045968;28;20039;-75
2023/12/05 03:59:12;;;;;;;29.03;17.07;;;-0.40;99.90;;;;;;5049859;28;20033;-75
2023/12/05 04:01:37;;;;;;;28.53;16.90;;;-0.30;99.90;;;;;;5046910;28;20041;-75
2023/12/05 04:04:03;;;;;;;29.53;16.97;;;-0.30;99.90;;;;;;5049127;28;20496;-75
2023/12/05 04:06:29;;;;;;;27.73;16.17;;;-0.40;99.90;;;;;;5048794;28;20127;-76
2023/12/05 04:08:54;;;;;;;30.33;17.53;;;-0.40;99.90;;;;;;5046920;28;20408;-76
2023/12/05 04:11:31;;;;;;;26.53;16.80;;;-0.30;99.90;;;;;;5029839;28;20800;-76
2023/12/05 04:13:57;;;;;;;28.47;16.53;;;-0.40;99.90;;;;;;5028840;28;20082;-75
2023/12/05 04:16:24;;;;;;;29.43;17.87;;;-0.40;99.90;;;;;;5051265;28;20033;-75
2023/12/05 04:18:49;;;;;;;28.17;17.03;;;-0.40;99.90;;;;;;5050942;28;20033;-76
2023/12/05 04:21:20;;;;;;;30.27;17.13;;;-0.40;99.90;;;;;;5052705;28;20403;-76
2023/12/05 04:23:46;;;;;;;28.73;16.53;;;-0.40;99.90;;;;;;5049959;28;20045;-75
2023/12/05 04:26:19;;;;;;;28.10;17.40;;;-0.40;99.90;;;;;;5052614;28;20044;-76
2023/12/05 04:28:45;;;;;;;30.83;17.97;;;-0.40;99.90;;;;;;5085216;28;20052;-76
2023/12/05 04:31:11;;;;;;;31.20;18.13;;;-0.40;99.90;;;;;;5048198;28;20043;-76
2023/12/05 04:33:39;;;;;;;29.97;17.67;;;-0.40;99.90;;;;;;5052044;28;20052;-75
2023/12/05 04:36:05;;;;;;;28.73;16.43;;;-0.40;99.90;;;;;;5044582;28;20033;-75
2023/12/05 04:38:32;;;;;;;28.73;16.87;;;-0.40;99.90;;;;;;5042502;28;20239;-75
2023/12/05 04:40:58;;;;;;;32.33;18.13;;;-0.40;99.90;;;;;;5025559;28;20033;-76
2023/12/05 04:43:24;;;;;;;31.87;17.07;;;-0.40;99.90;;;;;;5049015;28;20393;-76
2023/12/05 04:45:49;;;;;;;30.17;17.83;;;-0.40;99.90;;;;;;5048869;28;20072;-75
2023/12/05 04:48:16;;;;;;;29.47;17.43;;;-0.40;99.90;;;;;;5047656;28;20505;-76
2023/12/05 04:50:41;;;;;;;28.13;17.30;;;-0.40;99.90;;;;;;5044618;28;20041;-76
2023/12/05 04:53:07;;;;;;;28.90;17.03;;;-0.40;99.90;;;;;;5051471;28;20102;-77
2023/12/05 04:55:32;;;;;;;31.20;17.57;;;-0.40;99.90;;;;;;5052120;28;20037;-77
2023/12/05 04:57:58;;;;;;;31.57;16.90;;;-0.40;99.90;;;;;;5041272;28;20044;-76
2023/12/05 05:00:24;;;;;;;31.67;18.03;;;-0.40;99.90;;;;;;5050875;28;20033;-77
2023/12/05 05:02:49;;;;;;;29.37;17.93;;;-0.40;99.90;;;;;;5051058;28;20045;-77
2023/12/05 05:05:15;;;;;;;31.60;18.50;;;-0.40;99.90;;;;;;5042672;28;20660;-77
2023/12/05 05:07:40;;;;;;;31.57;17.77;;;-0.40;99.90;;;;;;5045790;28;20048;-76
2023/12/05 05:10:06;;;;;;;31.33;17.37;;;-0.40;99.90;;;;;;5030420;28;20041;-76
2023/12/05 05:12:32;;;;;;;31.07;18.00;;;-0.40;99.90;;;;;;5047150;28;20127;-77
2023/12/05 05:14:58;;;;;;;30.17;17.47;;;-0.40;99.90;;;;;;5074844;28;20182;-76
2023/12/05 05:17:23;;;;;;;29.33;17.27;;;-0.40;99.90;;;;;;5039777;28;20037;-77
2023/12/05 05:19:49;;;;;;;30.47;17.93;;;-0.40;99.90;;;;;;5049638;28;20040;-76
2023/12/05 05:22:15;;;;;;;31.37;17.97;;;-0.40;99.90;;;;;;5043487;28;20159;-77
2023/12/05 05:24:41;;;;;;;31.33;17.50;;;-0.40;99.90;;;;;;5081926;28;20412;-77
2023/12/05 05:27:06;;;;;;;30.93;17.37;;;-0.40;99.90;;;;;;5051030;28;20049;-77
2023/12/05 05:29:32;;;;;;;32.17;18.80;;;-0.40;99.90;;;;;;5047166;28;20037;-77
2023/12/05 05:31:58;;;;;;;30.40;17.23;;;-0.40;99.90;;;;;;5044540;28;20558;-76
2023/12/05 05:34:24;;;;;;;31.20;18.23;;;-0.40;99.90;;;;;;5051456;28;20041;-78
2023/12/05 05:36:50;;;;;;;30.03;17.33;;;-0.40;99.90;;;;;;5046207;28;20053;-78
2023/12/05 05:39:15;;;;;;;30.83;17.83;;;-0.40;99.90;;;;;;5029265;28;20037;-77
2023/12/05 05:41:41;;;;;;;30.47;17.70;;;-0.40;99.90;;;;;;5045071;28;20401;-77
2023/12/05 05:44:07;;;;;;;31.47;18.17;;;-0.40;99.90;;;;;;5051101;28;20069;-77
2023/12/05 05:46:32;;;;;;;32.50;18.10;;;-0.40;99.90;;;;;;5049222;28;20033;-77
2023/12/05 05:48:58;;;;;;;31.37;17.90;;;-0.40;99.90;;;;;;5047189;28;20045;-78
2023/12/05 05:51:25;;;;;;;29.60;17.53;;;-0.40;99.90;;;;;;5026798;28;20451;-77
2023/12/05 05:53:50;;;;;;;31.10;18.13;;;-0.40;99.90;;;;;;5046879;28;20033;-77
2023/12/05 05:56:16;;;;;;;29.17;17.03;;;-0.40;99.90;;;;;;5052050;28;20099;-77
2023/12/05 05:58:41;;;;;;;30.20;18.03;;;-0.40;99.90;;;;;;5051951;28;20048;-78
2023/12/05 06:01:07;;;;;;;31.23;17.97;;;-0.40;99.90;;;;;;5042934;28;20037;-77
2023/12/05 06:03:33;;;;;;;32.20;18.80;;;-0.40;99.90;;;;;;5046869;28;20044;-77
2023/12/05 06:05:58;;;;;;;30.37;16.80;;;-0.40;99.90;;;;;;5065201;28;20123;-77
2023/12/05 06:08:24;;;;;;;31.17;17.80;;;-0.40;99.90;;;;;;5039761;28;20122;-77
2023/12/05 06:10:50;;;;;;;34.23;17.87;;;-0.40;99.90;;;;;;5047008;28;20044;-77
2023/12/05 06:13:15;;;;;;;33.57;17.33;;;-0.40;99.90;;;;;;5049871;28;20547;-77
2023/12/05 06:15:41;;;;;;;33.83;17.90;;;-0.40;99.90;;;;;;5032787;28;20048;-77
2023/12/05 06:18:07;;;;;;;29.27;17.50;;;-0.40;99.90;;;;;;5046125;28;20492;-78
2023/12/05 06:20:32;;;;;;;32.33;17.77;;;-0.40;99.90;;;;;;5053375;28;20037;-78
2023/12/05 06:22:58;;;;;;;35.87;18.70;;;-0.40;99.90;;;;;;5049657;28;20051;-78
2023/12/05 06:25:24;;;;;;;32.13;17.60;;;-0.40;99.90;;;;;;5050390;28;20047;-78
2023/12/05 06:27:50;;;;;;;34.93;18.47;;;-0.40;99.90;;;;;;5048412;28;20512;-78
2023/12/05 06:30:15;;;;;;;31.63;17.80;;;-0.40;99.90;;;;;;5048696;28;20063;-77
2023/12/05 06:32:41;;;;;;;31.00;17.63;;;-0.40;99.90;;;;;;5048054;28;20049;-78
2023/12/05 06:35:07;;;;;;;32.70;18.53;;;-0.40;99.90;;;;;;5047817;28;20068;-77
2023/12/05 06:37:32;;;;;;;31.53;17.77;;;-0.40;99.90;;;;;;5050145;28;20044;-77
2023/12/05 06:39:58;;;;;;;34.80;18.60;;;-0.40;99.90;;;;;;5059657;28;20045;-78
2023/12/05 06:42:23;;;;;;;32.83;18.17;;;-0.40;99.90;;;;;;5045534;28;20464;-77
2023/12/05 06:44:51;;;;;;;34.37;18.90;;;-0.40;99.90;;;;;;5049972;28;20040;-77
2023/12/05 06:47:16;;;;;;;32.93;18.00;;;-0.40;99.90;;;;;;5048398;28;20045;-77
2023/12/05 06:49:43;;;;;;;33.57;18.27;;;-0.40;99.90;;;;;;5051495;28;20058;-77
2023/12/05 06:52:11;;;;;;;36.77;18.67;;;-0.40;99.90;;;;;;5046693;28;20512;-77
2023/12/05 06:54:37;;;;;;;34.87;18.53;;;-0.40;99.90;;;;;;5054007;28;20095;-76
2023/12/05 06:57:02;;;;;;;34.03;18.20;;;-0.40;99.90;;;;;;5048203;28;20041;-77
2023/12/05 06:59:28;;;;;;;35.83;18.17;;;-0.40;99.90;;;;;;5068128;28;20037;-77
2023/12/05 07:01:54;;;;;;;35.37;17.97;;;-0.40;99.90;;;;;;5031330;28;20041;-78
2023/12/05 07:04:19;;;;;;;34.27;17.67;;;-0.40;99.90;;;;;;5050004;28;20124;-77
2023/12/05 07:06:45;;;;;;;35.13;17.77;;;-0.40;99.90;;;;;;5049874;28;20114;-77
2023/12/05 07:09:10;;;;;;;30.97;17.10;;;-0.40;99.90;;;;;;5049552;28;20051;-77
2023/12/05 07:11:36;;;;;;;33.93;17.97;;;-0.40;99.90;;;;;;5043218;28;20064;-77
2023/12/05 07:14:02;;;;;;;32.20;16.90;;;-0.50;99.90;;;;;;5041468;28;20040;-76
2023/12/05 07:16:27;;;;;;;33.47;17.07;;;-0.40;99.90;;;;;;5044863;28;20040;-77
2023/12/05 07:18:54;;;;;;;32.53;17.53;;;-0.40;99.90;;;;;;5049529;28;20033;-76
2023/12/05 07:21:19;;;;;;;33.40;18.20;;;-0.40;99.90;;;;;;5049279;28;20053;-77
2023/12/05 07:23:45;;;;;;;30.07;16.80;;;-0.40;99.90;;;;;;5049855;28;20044;-77
2023/12/05 07:26:11;;;;;;;31.70;17.57;;;-0.40;99.90;;;;;;5049632;28;20044;-77
2023/12/05 07:28:36;;;;;;;30.63;16.77;;;-0.40;99.90;;;;;;5049529;28;20047;-76
2023/12/05 07:31:02;;;;;;;32.47;17.53;;;-0.40;99.90;;;;;;5046191;28;20115;-77
2023/12/05 07:33:27;;;;;;;32.37;17.23;;;-0.40;99.90;;;;;;5049943;28;20044;-76
2023/12/05 07:35:53;;;;;;;32.43;17.17;;;-0.40;99.90;;;;;;5049263;28;20540;-76
2023/12/05 07:38:19;;;;;;;34.30;18.13;;;-0.40;99.90;;;;;;5052930;28;20033;-76
2023/12/05 07:40:44;;;;;;;32.00;17.60;;;-0.40;99.90;;;;;;5049362;28;20045;-76
2023/12/05 07:43:10;;;;;;;33.17;17.87;;;-0.40;99.90;;;;;;5033237;28;20043;-77
2023/12/05 07:45:35;;;;;;;34.73;18.43;;;-0.40;99.90;;;;;;5052026;28;20081;-76
2023/12/05 07:48:02;;;;;;;34.13;18.47;;;-0.40;99.90;;;;;;5051583;28;20076;-76
2023/12/05 07:50:27;;;;;;;30.83;16.77;;;-0.40;99.90;;;;;;5034183;28;20408;-76
2023/12/05 07:52:53;;;;;;;31.17;16.77;;;-0.40;99.90;;;;;;5053045;28;20033;-76
2023/12/05 07:55:19;;;;;;;32.83;17.37;;;-0.30;99.90;;;;;;5050503;28;20145;-76
2023/12/05 07:57:46;;;;;;;34.27;18.30;;;-0.40;99.90;;;;;;5043464;28;20029;-75
2023/12/05 08:00:16;;;;;;;35.67;18.70;;;-0.30;99.90;;;;;;5053069;28;20037;-76
2023/12/05 08:02:43;;;;;;;32.67;16.50;;;-0.30;99.90;;;;;;5050120;28;20051;-76
2023/12/05 08:05:09;;;;;;;33.87;17.50;;;-0.30;99.90;;;;;;5052850;28;20044;-77
2023/12/05 08:07:35;;;;;;;30.90;17.57;;;-0.30;99.90;;;;;;5052971;28;20044;-76
2023/12/05 08:10:00;;;;;;;32.17;16.50;;;-0.30;99.90;;;;;;5052079;28;20052;-76
2023/12/05 08:12:26;;;;;;;32.43;17.50;;;-0.30;99.90;;;;;;5042968;28;20119;-76
2023/12/05 08:14:52;;;;;;;30.03;16.80;;;-0.30;99.90;;;;;;5053566;28;20040;-76
2023/12/05 08:17:17;;;;;;;33.57;18.17;;;-0.20;99.90;;;;;;5051403;28;20040;-76
2023/12/05 08:19:43;;;;;;;31.40;17.23;;;-0.20;99.90;;;;;;5052399;28;20033;-76
2023/12/05 08:22:08;;;;;;;30.17;17.27;;;-0.20;99.90;;;;;;5051737;28;20480;-76
2023/12/05 08:24:34;;;;;;;33.63;17.60;;;-0.20;99.90;;;;;;5051059;28;20037;-76
2023/12/05 08:27:00;;;;;;;30.80;17.67;;;-0.20;99.90;;;;;;5049235;28;20124;-76
2023/12/05 08:29:25;;;;;;;32.53;19.10;;;-0.20;99.90;;;;;;5046173;28;20063;-76
2023/12/05 08:31:51;;;;;;;31.13;17.67;;;-0.10;99.90;;;;;;5046466;28;20408;-75
2023/12/05 08:34:17;;;;;;;31.97;18.77;;;-0.20;99.90;;;;;;5052276;28;20538;-76
2023/12/05 08:36:44;;;;;;;30.87;17.07;;;-0.10;99.90;;;;;;5051713;28;20036;-76
2023/12/05 08:39:11;;;;;;;33.47;17.97;;;-0.10;99.90;;;;;;5052141;28;20037;-76
2023/12/05 08:41:36;;;;;;;34.50;17.93;;;-0.10;99.90;;;;;;5051652;28;20048;-75
2023/12/05 08:44:02;;;;;;;31.40;16.97;;;-0.10;99.90;;;;;;5051500;28;20127;-76
2023/12/05 08:46:28;;;;;;;30.70;16.83;;;-0.10;99.90;;;;;;5051958;28;20059;-76
2023/12/05 08:48:53;;;;;;;33.60;18.03;;;-0.10;99.90;;;;;;5043814;28;20037;-76
2023/12/05 08:51:19;;;;;;;32.67;18.23;;;-0.10;99.90;;;;;;5036972;28;20037;-76
2023/12/05 08:53:44;;;;;;;32.13;17.40;;;-0.10;99.90;;;;;;5048987;28;20496;-76
2023/12/05 08:56:10;;;;;;;32.03;17.87;;;-0.10;99.90;;;;;;5082265;28;20037;-76
2023/12/05 08:58:39;;;;;;;30.80;17.30;;;-0.10;99.90;;;;;;5049529;28;20039;-76
2023/12/05 09:01:05;;;;;;;31.00;17.30;;;-0.10;99.90;;;;;;5050129;28;20514;-76
2023/12/05 09:03:30;;;;;;;30.97;16.90;;;0.00;99.90;;;;;;5049526;28;20119;-75
2023/12/05 09:05:56;;;;;;;31.93;17.37;;;0.00;99.90;;;;;;5083215;28;20496;-75
2023/12/05 09:08:22;;;;;;;31.47;17.93;;;0.00;99.90;;;;;;5052004;28;20403;-76
2023/12/05 09:10:48;;;;;;;31.67;16.80;;;0.00;99.90;;;;;;5051900;28;20056;-75
2023/12/05 09:13:17;;;;;;;28.53;16.73;;;0.00;99.90;;;;;;5052287;28;20128;-74
2023/12/05 09:15:43;;;;;;;30.57;16.87;;;0.00;99.90;;;;;;5051859;28;20079;-75
2023/12/05 09:18:10;;;;;;;29.90;16.97;;;0.00;99.90;;;;;;5052095;28;20062;-75
2023/12/05 09:20:37;;;;;;;28.57;16.63;;;0.00;99.90;;;;;;5051983;28;20075;-76
2023/12/05 09:23:03;;;;;;;28.23;16.93;;;0.00;99.90;;;;;;5051594;28;20037;-75
2023/12/05 09:25:28;;;;;;;29.63;16.67;;;0.00;99.90;;;;;;5039971;28;20032;-75
2023/12/05 09:27:54;;;;;;;30.83;17.67;;;0.10;99.90;;;;;;5047874;28;20037;-75
2023/12/05 09:30:20;;;;;;;28.80;16.90;;;0.00;99.90;;;;;;5049876;28;20040;-75
2023/12/05 09:32:45;;;;;;;28.60;16.43;;;0.10;99.90;;;;;;5044694;28;20080;-75
2023/12/05 09:35:11;;;;;;;29.90;17.23;;;0.10;99.90;;;;;;5042794;28;20048;-75
2023/12/05 09:37:36;;;;;;;31.70;18.00;;;0.10;99.90;;;;;;5050548;28;20033;-75
2023/12/05 09:40:03;;;;;;;27.93;16.43;;;0.10;99.90;;;;;;5048365;28;20236;-76
2023/12/05 09:42:29;;;;;;;30.57;17.63;;;0.10;99.90;;;;;;5044577;28;20071;-75
2023/12/05 09:44:58;;;;;;;28.07;16.80;;;0.10;99.90;;;;;;5048422;28;20072;-75
2023/12/05 09:47:27;;;;;;;30.83;17.50;;;0.20;99.90;;;;;;5033852;28;20518;-75
2023/12/05 09:49:55;;;;;;;30.70;17.23;;;0.20;99.90;;;;;;5051038;28;20120;-76
2023/12/05 09:52:22;;;;;;;30.10;17.63;;;0.20;99.90;;;;;;5050710;28;20041;-76
2023/12/05 09:54:48;;;;;;;27.40;16.33;;;0.10;99.90;;;;;;5049182;28;20064;-75
2023/12/05 09:57:14;;;;;;;32.43;17.73;;;0.20;99.90;;;;;;5078156;28;20562;-75
2023/12/05 09:59:40;;;;;;;30.87;17.77;;;0.20;99.90;;;;;;5075432;28;20226;-75
2023/12/05 10:02:07;;;;;;;31.17;17.80;;;0.20;99.90;;;;;;5084018;28;20099;-77
2023/12/05 10:04:43;;;;;;;30.23;16.70;;;0.30;99.90;;;;;;5050734;28;20047;-76
2023/12/05 10:07:13;;;;;;;29.87;17.93;;;0.30;99.90;;;;;;5079872;28;20045;-77
2023/12/05 10:09:43;;;;;;;31.20;16.93;;;0.30;99.90;;;;;;5067248;28;20083;-76
2023/12/05 10:12:10;;;;;;;33.30;19.07;;;0.40;99.90;;;;;;5059035;28;20044;-76
2023/12/05 10:14:39;;;;;;;30.83;18.00;;;0.40;99.90;;;;;;5050335;28;20076;-76
2023/12/05 10:17:06;;;;;;;31.30;17.63;;;0.40;99.90;;;;;;5050425;28;20111;-76
2023/12/05 10:19:32;;;;;;;31.80;17.67;;;0.40;99.90;;;;;;5033963;28;20033;-76
2023/12/05 10:21:59;;;;;;;31.23;16.73;;;0.40;99.90;;;;;;5049048;28;20151;-76
2023/12/05 10:24:44;;;;;;;32.23;18.67;;;0.50;99.90;;;;;;5050526;28;20036;-77
2023/12/05 10:27:11;;;;;;;30.70;17.30;;;0.40;99.90;;;;;;5043692;28;20041;-76
2023/12/05 10:29:41;;;;;;;33.63;18.17;;;0.40;99.90;;;;;;5083398;28;20040;-77
2023/12/05 10:32:08;;;;;;;29.50;17.37;;;0.40;99.90;;;;;;5058352;28;20079;-77
2023/12/05 10:34:49;;;;;;;31.83;17.97;;;0.40;99.90;;;;;;5053352;28;20436;-75
2023/12/05 10:37:22;;;;;;;31.40;17.33;;;0.40;99.90;;;;;;5076689;28;20076;-77
2023/12/05 10:39:49;;;;;;;27.42;15.82;;;0.40;99.90;;;;;;5046250;28;20064;-76
2023/12/05 10:42:15;;;;;;;31.00;17.03;;;0.40;99.90;;;;;;5046645;28;20056;-76
2023/12/05 10:44:41;;;;;;;32.77;18.03;;;0.40;99.90;;;;;;5050105;28;20075;-76
2023/12/05 10:47:08;;;;;;;30.33;17.60;;;0.40;99.90;;;;;;5047633;28;20045;-74
2023/12/05 10:49:34;;;;;;;30.73;16.33;;;0.50;99.90;;;;;;5083476;28;20086;-75
2023/12/05 10:52:03;;;;;;;28.37;16.90;;;0.50;99.90;;;;;;5047090;28;20060;-75
2023/12/05 10:54:29;;;;;;;33.50;17.77;;;0.50;99.90;;;;;;5038977;28;20043;-75
2023/12/05 10:56:58;;;;;;;33.60;18.57;;;0.50;99.90;;;;;;5046928;28;20041;-76
2023/12/05 10:59:28;;;;;;;30.50;18.13;;;0.50;99.90;;;;;;5082066;28;20116;-76
2023/12/05 11:01:58;;;;;;;29.80;16.93;;;0.50;99.90;;;;;;5068125;28;20041;-75
2023/12/05 11:04:27;;;;;;;33.97;18.63;;;0.50;99.90;;;;;;5048366;28;20068;-76
2023/12/05 11:06:53;;;;;;;29.47;16.70;;;0.40;99.90;;;;;;5052455;28;20033;-75
2023/12/05 11:09:19;;;;;;;34.00;18.17;;;0.50;99.90;;;;;;5051573;28;20033;-76
2023/12/05 11:11:50;;;;;;;33.90;18.00;;;0.50;99.90;;;;;;5038847;28;20044;-76
2023/12/05 11:14:19;;;;;;;30.00;16.90;;;0.50;99.90;;;;;;5046883;28;20044;-75
2023/12/05 11:16:53;;;;;;;29.13;16.47;;;0.50;99.90;;;;;;5049081;28;20036;-76
2023/12/05 11:19:22;;;;;;;32.60;18.40;;;0.50;99.90;;;;;;5050921;28;20044;-76
2023/12/05 11:22:10;;;;;;;31.53;17.57;;;0.60;99.90;;;;;;5056350;28;20042;-76
2023/12/05 11:25:08;;;;;;;29.40;16.57;;;0.60;99.90;;;;;;5039108;28;20127;-76
2023/12/05 11:28:01;;;;;;;32.70;18.20;;;0.60;99.90;;;;;;5049280;28;20048;-77
2023/12/05 11:31:08;;;;;;;29.33;16.60;;;0.60;99.90;;;;;;5037450;28;20040;-75
2023/12/05 11:33:51;;;;;;;32.50;17.43;;;0.60;99.90;;;;;;5037875;28;20049;-76
2023/12/05 11:37:09;;;;;;;32.70;17.70;;;0.60;99.90;;;;;;5022165;28;20114;-75
2023/12/05 11:39:35;;;;;;;32.07;17.27;;;0.60;99.90;;;;;;5049539;28;20042;-76
2023/12/05 11:42:09;;;;;;;33.47;17.93;;;0.60;99.90;;;;;;5026320;28;20547;-76
2023/12/05 11:44:38;;;;;;;31.45;17.90;;;0.50;99.90;;;;;;5027969;28;20060;-76
2023/12/05 11:47:27;;;;;;;33.40;18.20;;;0.60;99.90;;;;;;5046244;28;20435;-76
2023/12/05 11:49:55;;;;;;;32.33;17.13;;;0.50;99.90;;;;;;5046865;28;20041;-75
2023/12/05 11:52:25;;;;;;;34.50;18.07;;;0.60;99.90;;;;;;5080109;28;20064;-75
2023/12/05 11:54:53;;;;;;;34.40;18.90;;;0.60;99.90;;;;;;5047239;28;20049;-76
2023/12/05 11:57:20;;;;;;;31.87;17.60;;;0.60;99.90;;;;;;5046622;28;20448;-76
2023/12/05 11:59:48;;;;;;;31.83;18.40;;;0.60;99.90;;;;;;5047616;28;20044;-76
2023/12/05 12:02:18;;;;;;;36.90;19.37;;;0.50;99.90;;;;;;5047232;28;20033;-76
2023/12/05 12:04:47;;;;;;;33.63;18.57;;;0.50;99.90;;;;;;5048213;28;20520;-76
2023/12/05 12:07:13;;;;;;;33.23;18.37;;;0.50;99.90;;;;;;5049273;28;20398;-76
2023/12/05 12:09:42;;;;;;;34.13;18.60;;;0.50;99.90;;;;;;5081474;28;20040;-76
2023/12/05 12:12:08;;;;;;;35.70;19.40;;;0.50;99.90;;;;;;5048936;28;20041;-76
2023/12/05 12:14:34;;;;;;;36.30;19.30;;;0.40;99.90;;;;;;5049394;28;20033;-76
2023/12/05 12:17:04;;;;;;;32.73;18.20;;;0.40;99.90;;;;;;5033006;28;20060;-76
2023/12/05 12:19:30;;;;;;;36.67;19.70;;;0.40;99.90;;;;;;5082019;28;20033;-76
2023/12/05 12:21:56;;;;;;;36.30;19.40;;;0.40;99.90;;;;;;5048167;28;20399;-76
2023/12/05 12:24:24;;;;;;;34.77;18.97;;;0.40;99.90;;;;;;5047435;28;20053;-75
2023/12/05 12:26:54;;;;;;;34.10;18.50;;;0.40;99.90;;;;;;5049442;28;20540;-76
2023/12/05 12:29:21;;;;;;;37.60;20.27;;;0.40;99.90;;;;;;5049314;28;20045;-76
2023/12/05 12:31:47;;;;;;;38.57;19.00;;;0.30;99.90;;;;;;5052134;28;20076;-76